sensor_id;sensor_type;location;lat;lon;timestamp;pressure;altitude;pressure_sealevel;temperature;humidity
42587;BME280;28216;53.362;-6.288;2023-06-24T00:00:00;101569.22;;;19.89;100.00
42587;BME280;28216;53.362;-6.288;2023-06-24T00:02:32;101584.59;;;19.87;100.00
42587;BME280;28216;53.362;-6.288;2023-06-24T00:05:00;101577.41;;;19.81;100.00
42587;BME280;28216;53.362;-6.288;2023-06-24T00:07:28;101585.41;;;19.87;100.00
42587;BME280;28216;53.362;-6.288;2023-06-24T00:09:54;101575.34;;;19.83;100.00
42587;BME280;28216;53.362;-6.288;2023-06-24T00:12:25;101586.81;;;19.83;100.00
42587;BME280;28216;53.362;-6.288;2023-06-24T00:14:51;101587.03;;;19.88;100.00
42587;BME280;28216;53.362;-6.288;2023-06-24T00:17:17;101591.53;;;19.81;100.00
42587;BME280;28216;53.362;-6.288;2023-06-24T00:19:43;101590.09;;;19.85;100.00
42587;BME280;28216;53.362;-6.288;2023-06-24T00:22:11;101596.06;;;19.87;100.00
42587;BME280;28216;53.362;-6.288;2023-06-24T00:24:37;101594.00;;;19.83;100.00
42587;BME280;28216;53.362;-6.288;2023-06-24T00:27:10;101600.56;;;19.87;100.00
42587;BME280;28216;53.362;-6.288;2023-06-24T00:29:39;101598.69;;;19.81;100.00
42587;BME280;28216;53.362;-6.288;2023-06-24T00:32:05;101602.16;;;19.75;100.00
42587;BME280;28216;53.362;-6.288;2023-06-24T00:34:31;101590.88;;;19.73;100.00
42587;BME280;28216;53.362;-6.288;2023-06-24T00:36:56;101598.66;;;19.74;100.00
42587;BME280;28216;53.362;-6.288;2023-06-24T00:39:24;101600.72;;;19.72;100.00
42587;BME280;28216;53.362;-6.288;2023-06-24T00:41:50;101602.13;;;19.68;100.00
42587;BME280;28216;53.362;-6.288;2023-06-24T00:44:15;101605.81;;;19.74;100.00
42587;BME280;28216;53.362;-6.288;2023-06-24T00:46:41;101606.03;;;19.72;100.00
42587;BME280;28216;53.362;-6.288;2023-06-24T00:49:07;101608.88;;;19.71;100.00
42587;BME280;28216;53.362;-6.288;2023-06-24T00:51:33;101602.75;;;19.70;100.00
42587;BME280;28216;53.362;-6.288;2023-06-24T00:54:01;101606.81;;;19.66;100.00
42587;BME280;28216;53.362;-6.288;2023-06-24T00:56:31;101606.59;;;19.61;100.00
42587;BME280;28216;53.362;-6.288;2023-06-24T00:59:02;101613.16;;;19.65;100.00
42587;BME280;28216;53.362;-6.288;2023-06-24T01:01:32;101597.78;;;19.60;100.00
42587;BME280;28216;53.362;-6.288;2023-06-24T01:03:59;101608.44;;;19.60;100.00
42587;BME280;28216;53.362;-6.288;2023-06-24T01:06:28;101609.06;;;19.62;100.00
42587;BME280;28216;53.362;-6.288;2023-06-24T01:09:00;101607.75;;;19.52;100.00
42587;BME280;28216;53.362;-6.288;2023-06-24T01:11:30;101608.59;;;19.52;100.00
42587;BME280;28216;53.362;-6.288;2023-06-24T01:13:56;101609.84;;;19.56;100.00
42587;BME280;28216;53.362;-6.288;2023-06-24T01:16:51;101605.56;;;19.55;100.00
42587;BME280;28216;53.362;-6.288;2023-06-24T01:30:48;101620.81;;;19.47;100.00
42587;BME280;28216;53.362;-6.288;2023-06-24T01:33:23;101609.22;;;19.54;100.00
42587;BME280;28216;53.362;-6.288;2023-06-24T01:35:52;101610.66;;;19.57;100.00
42587;BME280;28216;53.362;-6.288;2023-06-24T01:38:31;101612.50;;;19.56;100.00
42587;BME280;28216;53.362;-6.288;2023-06-24T01:41:03;101609.03;;;19.56;100.00
42587;BME280;28216;53.362;-6.288;2023-06-24T01:43:31;101598.81;;;19.59;100.00
42587;BME280;28216;53.362;-6.288;2023-06-24T01:45:58;101594.72;;;19.57;100.00
42587;BME280;28216;53.362;-6.288;2023-06-24T01:48:27;101598.19;;;19.57;100.00
42587;BME280;28216;53.362;-6.288;2023-06-24T01:51:04;101600.66;;;19.59;100.00
42587;BME280;28216;53.362;-6.288;2023-06-24T01:53:34;101607.81;;;19.58;100.00
42587;BME280;28216;53.362;-6.288;2023-06-24T01:56:01;101606.59;;;19.61;100.00
42587;BME280;28216;53.362;-6.288;2023-06-24T01:58:28;101608.25;;;19.62;100.00
42587;BME280;28216;53.362;-6.288;2023-06-24T02:00:55;101611.09;;;19.60;100.00
42587;BME280;28216;53.362;-6.288;2023-06-24T02:03:22;101605.34;;;19.57;100.00
42587;BME280;28216;53.362;-6.288;2023-06-24T02:05:49;101601.47;;;19.59;100.00
42587;BME280;28216;53.362;-6.288;2023-06-24T02:08:16;101592.66;;;19.52;100.00
42587;BME280;28216;53.362;-6.288;2023-06-24T02:10:43;101592.81;;;19.51;100.00
42587;BME280;28216;53.362;-6.288;2023-06-24T02:13:11;101583.66;;;19.53;100.00
42587;BME280;28216;53.362;-6.288;2023-06-24T02:15:39;101583.38;;;19.48;100.00
42587;BME280;28216;53.362;-6.288;2023-06-24T02:18:06;101586.25;;;19.47;100.00
42587;BME280;28216;53.362;-6.288;2023-06-24T02:20:33;101588.91;;;19.47;100.00
42587;BME280;28216;53.362;-6.288;2023-06-24T02:23:02;101595.84;;;19.41;100.00
42587;BME280;28216;53.362;-6.288;2023-06-24T02:25:31;101595.44;;;19.44;100.00
42587;BME280;28216;53.362;-6.288;2023-06-24T02:27:57;101597.28;;;19.44;100.00
42587;BME280;28216;53.362;-6.288;2023-06-24T02:30:23;101591.97;;;19.44;100.00
42587;BME280;28216;53.362;-6.288;2023-06-24T02:32:49;101593.22;;;19.48;100.00
42587;BME280;28216;53.362;-6.288;2023-06-24T02:35:17;101592.19;;;19.49;100.00
42587;BME280;28216;53.362;-6.288;2023-06-24T02:37:45;101593.81;;;19.50;100.00
42587;BME280;28216;53.362;-6.288;2023-06-24T02:40:11;101582.81;;;19.53;100.00
42587;BME280;28216;53.362;-6.288;2023-06-24T02:42:39;101582.84;;;19.59;100.00
42587;BME280;28216;53.362;-6.288;2023-06-24T02:45:05;101588.78;;;19.61;100.00
42587;BME280;28216;53.362;-6.288;2023-06-24T02:47:33;101587.78;;;19.62;100.00
42587;BME280;28216;53.362;-6.288;2023-06-24T02:49:59;101588.19;;;19.66;100.00
42587;BME280;28216;53.362;-6.288;2023-06-24T02:52:25;101586.16;;;19.68;100.00
42587;BME280;28216;53.362;-6.288;2023-06-24T02:54:57;101579.59;;;19.64;100.00
42587;BME280;28216;53.362;-6.288;2023-06-24T02:57:25;101577.78;;;19.71;100.00
42587;BME280;28216;53.362;-6.288;2023-06-24T02:59:51;101584.16;;;19.77;100.00
42587;BME280;28216;53.362;-6.288;2023-06-24T03:02:16;101579.03;;;19.75;100.00
42587;BME280;28216;53.362;-6.288;2023-06-24T03:04:43;101581.09;;;19.80;100.00
42587;BME280;28216;53.362;-6.288;2023-06-24T03:07:11;101580.69;;;19.83;100.00
42587;BME280;28216;53.362;-6.288;2023-06-24T03:09:37;101585.59;;;19.86;100.00
42587;BME280;28216;53.362;-6.288;2023-06-24T03:12:03;101583.38;;;19.89;100.00
42587;BME280;28216;53.362;-6.288;2023-06-24T03:14:30;101586.00;;;19.83;100.00
42587;BME280;28216;53.362;-6.288;2023-06-24T03:16:56;101584.97;;;19.84;100.00
42587;BME280;28216;53.362;-6.288;2023-06-24T03:19:22;101585.59;;;19.86;100.00
42587;BME280;28216;53.362;-6.288;2023-06-24T03:21:48;101581.28;;;19.78;100.00
42587;BME280;28216;53.362;-6.288;2023-06-24T03:24:13;101585.41;;;19.87;100.00
42587;BME280;28216;53.362;-6.288;2023-06-24T03:26:39;101594.22;;;19.88;100.00
42587;BME280;28216;53.362;-6.288;2023-06-24T03:29:07;101586.84;;;19.90;100.00
42587;BME280;28216;53.362;-6.288;2023-06-24T03:31:35;101585.63;;;19.99;100.00
42587;BME280;28216;53.362;-6.288;2023-06-24T03:34:03;101584.41;;;19.95;100.00
42587;BME280;28216;53.362;-6.288;2023-06-24T03:36:28;101586.44;;;19.93;100.00
42587;BME280;28216;53.362;-6.288;2023-06-24T03:38:56;101575.78;;;19.93;100.00
42587;BME280;28216;53.362;-6.288;2023-06-24T03:41:22;101579.06;;;19.95;100.00
42587;BME280;28216;53.362;-6.288;2023-06-24T03:43:48;101578.44;;;19.86;100.00
42587;BME280;28216;53.362;-6.288;2023-06-24T03:46:13;101583.53;;;19.81;100.00
42587;BME280;28216;53.362;-6.288;2023-06-24T03:48:39;101583.53;;;19.75;100.00
42587;BME280;28216;53.362;-6.288;2023-06-24T03:51:05;101589.25;;;19.72;100.00
42587;BME280;28216;53.362;-6.288;2023-06-24T03:53:31;101593.53;;;19.73;100.00
42587;BME280;28216;53.362;-6.288;2023-06-24T03:55:59;101592.72;;;19.72;100.00
42587;BME280;28216;53.362;-6.288;2023-06-24T03:58:26;101598.22;;;19.64;100.00
42587;BME280;28216;53.362;-6.288;2023-06-24T04:00:54;101607.03;;;19.71;100.00
42587;BME280;28216;53.362;-6.288;2023-06-24T04:03:34;101590.28;;;19.77;100.00
42587;BME280;28216;53.362;-6.288;2023-06-24T04:05:59;101597.84;;;19.74;100.00
42587;BME280;28216;53.362;-6.288;2023-06-24T04:08:27;101597.88;;;19.80;100.00
42587;BME280;28216;53.362;-6.288;2023-06-24T04:10:57;101606.91;;;19.86;100.00
42587;BME280;28216;53.362;-6.288;2023-06-24T04:13:25;101596.66;;;19.89;100.00
42587;BME280;28216;53.362;-6.288;2023-06-24T04:15:50;101596.88;;;19.94;100.00
42587;BME280;28216;53.362;-6.288;2023-06-24T04:18:16;101601.78;;;19.91;100.00
42587;BME280;28216;53.362;-6.288;2023-06-24T04:20:44;101598.94;;;19.99;100.00
42587;BME280;28216;53.362;-6.288;2023-06-24T04:23:09;101602.66;;;20.05;100.00
42587;BME280;28216;53.362;-6.288;2023-06-24T04:25:36;101610.25;;;20.08;100.00
42587;BME280;28216;53.362;-6.288;2023-06-24T04:28:03;101607.81;;;20.13;100.00
42587;BME280;28216;53.362;-6.288;2023-06-24T04:30:32;101604.34;;;20.12;100.00
42587;BME280;28216;53.362;-6.288;2023-06-24T04:33:01;101611.31;;;20.13;100.00
42587;BME280;28216;53.362;-6.288;2023-06-24T04:35:26;101607.63;;;20.14;100.00
42587;BME280;28216;53.362;-6.288;2023-06-24T04:37:52;101609.25;;;20.15;100.00
42587;BME280;28216;53.362;-6.288;2023-06-24T04:40:18;101615.81;;;20.13;100.00
42587;BME280;28216;53.362;-6.288;2023-06-24T04:42:45;101618.88;;;20.10;100.00
42587;BME280;28216;53.362;-6.288;2023-06-24T04:45:11;101616.63;;;20.13;100.00
42587;BME280;28216;53.362;-6.288;2023-06-24T04:47:36;101623.00;;;20.19;100.00
42587;BME280;28216;53.362;-6.288;2023-06-24T04:50:02;101619.91;;;20.22;100.00
42587;BME280;28216;53.362;-6.288;2023-06-24T04:52:28;101630.78;;;20.27;100.00
42587;BME280;28216;53.362;-6.288;2023-06-24T04:54:56;101625.66;;;20.25;100.00
42587;BME280;28216;53.362;-6.288;2023-06-24T04:57:34;101621.16;;;20.19;100.00
42587;BME280;28216;53.362;-6.288;2023-06-24T04:59:59;101632.22;;;20.23;100.00
42587;BME280;28216;53.362;-6.288;2023-06-24T05:02:25;101633.66;;;20.25;100.00
42587;BME280;28216;53.362;-6.288;2023-06-24T05:04:52;101630.59;;;20.28;100.00
42587;BME280;28216;53.362;-6.288;2023-06-24T05:07:17;101631.81;;;20.26;100.00
42587;BME280;28216;53.362;-6.288;2023-06-24T05:09:44;101631.81;;;20.33;100.00
42587;BME280;28216;53.362;-6.288;2023-06-24T05:12:10;101639.81;;;20.33;100.00
42587;BME280;28216;53.362;-6.288;2023-06-24T05:14:36;101628.97;;;20.34;100.00
42587;BME280;28216;53.362;-6.288;2023-06-24T05:17:05;101624.03;;;20.38;100.00
42587;BME280;28216;53.362;-6.288;2023-06-24T05:19:30;101623.03;;;20.39;100.00
42587;BME280;28216;53.362;-6.288;2023-06-24T05:21:56;101619.78;;;20.43;100.00
42587;BME280;28216;53.362;-6.288;2023-06-24T05:24:22;101622.88;;;20.53;100.00
42587;BME280;28216;53.362;-6.288;2023-06-24T05:26:48;101624.91;;;20.71;100.00
42587;BME280;28216;53.362;-6.288;2023-06-24T05:29:14;101625.56;;;20.93;100.00
42587;BME280;28216;53.362;-6.288;2023-06-24T05:31:40;101624.72;;;21.25;100.00
42587;BME280;28216;53.362;-6.288;2023-06-24T05:34:06;101620.94;;;21.53;100.00
42587;BME280;28216;53.362;-6.288;2023-06-24T05:36:31;101620.06;;;21.72;100.00
42587;BME280;28216;53.362;-6.288;2023-06-24T05:38:57;101628.16;;;22.04;100.00
42587;BME280;28216;53.362;-6.288;2023-06-24T05:41:22;101625.53;;;22.35;100.00
42587;BME280;28216;53.362;-6.288;2023-06-24T05:43:48;101612.75;;;22.69;100.00
42587;BME280;28216;53.362;-6.288;2023-06-24T05:46:13;101618.38;;;22.86;100.00
42587;BME280;28216;53.362;-6.288;2023-06-24T05:48:39;101613.19;;;23.34;100.00
42587;BME280;28216;53.362;-6.288;2023-06-24T05:51:05;101612.22;;;23.65;100.00
42587;BME280;28216;53.362;-6.288;2023-06-24T05:53:30;101615.06;;;23.88;100.00
42587;BME280;28216;53.362;-6.288;2023-06-24T05:55:56;101610.31;;;24.32;100.00
42587;BME280;28216;53.362;-6.288;2023-06-24T05:58:21;101622.00;;;25.02;100.00
42587;BME280;28216;53.362;-6.288;2023-06-24T06:00:46;101614.19;;;25.64;100.00
42587;BME280;28216;53.362;-6.288;2023-06-24T06:03:12;101611.50;;;25.76;100.00
42587;BME280;28216;53.362;-6.288;2023-06-24T06:05:37;101599.63;;;26.46;100.00
42587;BME280;28216;53.362;-6.288;2023-06-24T06:08:03;101595.13;;;26.85;100.00
42587;BME280;28216;53.362;-6.288;2023-06-24T06:10:29;101604.97;;;27.13;100.00
42587;BME280;28216;53.362;-6.288;2023-06-24T06:12:55;101595.44;;;27.66;100.00
42587;BME280;28216;53.362;-6.288;2023-06-24T06:15:20;101596.41;;;28.08;100.00
42587;BME280;28216;53.362;-6.288;2023-06-24T06:17:46;101582.66;;;28.10;100.00
42587;BME280;28216;53.362;-6.288;2023-06-24T06:20:12;101600.94;;;27.76;100.00
42587;BME280;28216;53.362;-6.288;2023-06-24T06:22:37;101597.94;;;27.50;100.00
42587;BME280;28216;53.362;-6.288;2023-06-24T06:25:06;101598.53;;;28.28;100.00
42587;BME280;28216;53.362;-6.288;2023-06-24T06:27:32;101598.34;;;27.86;100.00
42587;BME280;28216;53.362;-6.288;2023-06-24T06:29:57;101605.28;;;27.38;100.00
42587;BME280;28216;53.362;-6.288;2023-06-24T06:32:23;101603.13;;;26.80;100.00
42587;BME280;28216;53.362;-6.288;2023-06-24T06:34:48;101610.00;;;26.25;100.00
42587;BME280;28216;53.362;-6.288;2023-06-24T06:37:14;101606.38;;;26.03;100.00
42587;BME280;28216;53.362;-6.288;2023-06-24T06:39:39;101612.44;;;25.98;100.00
42587;BME280;28216;53.362;-6.288;2023-06-24T06:42:05;101602.16;;;26.07;100.00
42587;BME280;28216;53.362;-6.288;2023-06-24T06:44:31;101616.25;;;26.43;100.00
42587;BME280;28216;53.362;-6.288;2023-06-24T06:46:59;101612.69;;;27.26;100.00
42587;BME280;28216;53.362;-6.288;2023-06-24T06:49:24;101603.88;;;27.52;100.00
42587;BME280;28216;53.362;-6.288;2023-06-24T06:51:53;101603.31;;;27.50;100.00
42587;BME280;28216;53.362;-6.288;2023-06-24T06:54:19;101596.66;;;27.80;100.00
42587;BME280;28216;53.362;-6.288;2023-06-24T06:56:44;101599.47;;;27.90;100.00
42587;BME280;28216;53.362;-6.288;2023-06-24T06:59:10;101602.88;;;28.07;100.00
42587;BME280;28216;53.362;-6.288;2023-06-24T07:01:36;101614.56;;;28.82;100.00
42587;BME280;28216;53.362;-6.288;2023-06-24T07:04:01;101609.44;;;28.80;100.00
42587;BME280;28216;53.362;-6.288;2023-06-24T07:06:27;101608.00;;;29.05;100.00
42587;BME280;28216;53.362;-6.288;2023-06-24T07:08:52;101615.97;;;29.32;100.00
42587;BME280;28216;53.362;-6.288;2023-06-24T07:11:18;101607.44;;;29.55;100.00
42587;BME280;28216;53.362;-6.288;2023-06-24T07:13:43;101618.63;;;29.84;100.00
42587;BME280;28216;53.362;-6.288;2023-06-24T07:16:11;101616.38;;;29.61;100.00
42587;BME280;28216;53.362;-6.288;2023-06-24T07:18:36;101608.97;;;30.19;100.00
42587;BME280;28216;53.362;-6.288;2023-06-24T07:21:02;101612.75;;;30.23;100.00
42587;BME280;28216;53.362;-6.288;2023-06-24T07:23:27;101615.22;;;30.55;100.00
42587;BME280;28216;53.362;-6.288;2023-06-24T07:25:53;101620.31;;;30.97;95.58
42587;BME280;28216;53.362;-6.288;2023-06-24T07:28:18;101608.97;;;30.90;94.56
42587;BME280;28216;53.362;-6.288;2023-06-24T07:30:44;101625.16;;;31.05;93.48
42587;BME280;28216;53.362;-6.288;2023-06-24T07:33:10;101629.25;;;30.92;90.89
42587;BME280;28216;53.362;-6.288;2023-06-24T07:35:35;101632.81;;;30.57;91.58
42587;BME280;28216;53.362;-6.288;2023-06-24T07:38:01;101623.81;;;31.18;87.07
42587;BME280;28216;53.362;-6.288;2023-06-24T07:40:26;101641.97;;;31.07;87.80
42587;BME280;28216;53.362;-6.288;2023-06-24T07:42:53;101636.56;;;31.22;87.33
42587;BME280;28216;53.362;-6.288;2023-06-24T07:45:19;101647.53;;;31.51;83.13
42587;BME280;28216;53.362;-6.288;2023-06-24T07:47:44;101649.19;;;31.47;83.50
42587;BME280;28216;53.362;-6.288;2023-06-24T07:50:10;101651.25;;;30.60;89.43
42587;BME280;28216;53.362;-6.288;2023-06-24T07:52:39;101658.50;;;30.90;87.70
42587;BME280;28216;53.362;-6.288;2023-06-24T07:55:08;101664.75;;;30.91;85.93
42587;BME280;28216;53.362;-6.288;2023-06-24T07:57:33;101670.41;;;30.39;90.55
42587;BME280;28216;53.362;-6.288;2023-06-24T07:59:59;101674.44;;;30.31;93.44
42587;BME280;28216;53.362;-6.288;2023-06-24T08:02:24;101669.56;;;30.23;93.44
42587;BME280;28216;53.362;-6.288;2023-06-24T08:04:51;101681.25;;;30.49;88.99
42587;BME280;28216;53.362;-6.288;2023-06-24T08:07:17;101673.44;;;30.78;86.86
42587;BME280;28216;53.362;-6.288;2023-06-24T08:09:45;101681.25;;;30.99;86.30
42587;BME280;28216;53.362;-6.288;2023-06-24T08:12:10;101673.94;;;30.90;86.46
42587;BME280;28216;53.362;-6.288;2023-06-24T08:14:36;101683.97;;;30.79;86.46
42587;BME280;28216;53.362;-6.288;2023-06-24T08:17:02;101679.66;;;30.68;86.98
42587;BME280;28216;53.362;-6.288;2023-06-24T08:19:27;101677.69;;;30.43;85.21
42587;BME280;28216;53.362;-6.288;2023-06-24T08:21:53;101687.41;;;30.14;88.36
42587;BME280;28216;53.362;-6.288;2023-06-24T08:24:18;101691.06;;;29.77;92.59
42587;BME280;28216;53.362;-6.288;2023-06-24T08:26:44;101681.78;;;29.63;93.25
42587;BME280;28216;53.362;-6.288;2023-06-24T08:29:10;101678.69;;;29.39;99.95
42587;BME280;28216;53.362;-6.288;2023-06-24T08:31:35;101679.44;;;29.77;95.38
42587;BME280;28216;53.362;-6.288;2023-06-24T08:34:01;101682.97;;;29.82;94.08
42587;BME280;28216;53.362;-6.288;2023-06-24T08:36:31;101691.28;;;29.70;94.13
42587;BME280;28216;53.362;-6.288;2023-06-24T08:38:57;101690.88;;;29.99;93.77
42587;BME280;28216;53.362;-6.288;2023-06-24T08:41:25;101687.13;;;30.05;93.91
42587;BME280;28216;53.362;-6.288;2023-06-24T08:43:55;101685.81;;;30.33;93.05
42587;BME280;28216;53.362;-6.288;2023-06-24T08:46:21;101684.69;;;30.03;92.87
42587;BME280;28216;53.362;-6.288;2023-06-24T08:48:59;101690.09;;;29.46;94.79
42587;BME280;28216;53.362;-6.288;2023-06-24T08:51:29;101688.03;;;29.21;99.00
42587;BME280;28216;53.362;-6.288;2023-06-24T08:53:55;101687.94;;;29.06;100.00
42587;BME280;28216;53.362;-6.288;2023-06-24T08:56:21;101691.63;;;28.95;100.00
42587;BME280;28216;53.362;-6.288;2023-06-24T08:58:46;101693.00;;;28.97;100.00
42587;BME280;28216;53.362;-6.288;2023-06-24T09:01:12;101690.22;;;28.87;100.00
42587;BME280;28216;53.362;-6.288;2023-06-24T09:03:37;101684.53;;;28.57;100.00
42587;BME280;28216;53.362;-6.288;2023-06-24T09:06:03;101675.72;;;28.66;100.00
42587;BME280;28216;53.362;-6.288;2023-06-24T09:08:39;101688.84;;;28.85;100.00
42587;BME280;28216;53.362;-6.288;2023-06-24T09:11:08;101680.78;;;29.27;96.93
42587;BME280;28216;53.362;-6.288;2023-06-24T09:13:34;101681.34;;;29.34;97.19
42587;BME280;28216;53.362;-6.288;2023-06-24T09:16:11;101669.94;;;28.85;94.39
42587;BME280;28216;53.362;-6.288;2023-06-24T09:18:37;101680.53;;;28.91;95.41
42587;BME280;28216;53.362;-6.288;2023-06-24T09:21:02;101681.72;;;28.41;100.00
42587;BME280;28216;53.362;-6.288;2023-06-24T09:23:28;101672.69;;;28.58;100.00
42587;BME280;28216;53.362;-6.288;2023-06-24T09:25:59;101673.72;;;28.25;100.00
42587;BME280;28216;53.362;-6.288;2023-06-24T09:28:28;101676.31;;;28.20;100.00
42587;BME280;28216;53.362;-6.288;2023-06-24T09:31:06;101680.13;;;27.53;100.00
42587;BME280;28216;53.362;-6.288;2023-06-24T09:33:34;101682.41;;;27.61;100.00
42587;BME280;28216;53.362;-6.288;2023-06-24T09:36:02;101671.06;;;27.81;100.00
42587;BME280;28216;53.362;-6.288;2023-06-24T09:38:37;101692.28;;;27.39;100.00
42587;BME280;28216;53.362;-6.288;2023-06-24T09:41:06;101686.94;;;27.22;100.00
42587;BME280;28216;53.362;-6.288;2023-06-24T09:43:41;101677.06;;;27.49;100.00
42587;BME280;28216;53.362;-6.288;2023-06-24T09:56:30;101681.78;;;26.70;100.00
42587;BME280;28216;53.362;-6.288;2023-06-24T09:58:58;101679.09;;;26.70;100.00
42587;BME280;28216;53.362;-6.288;2023-06-24T10:01:27;101687.59;;;26.79;100.00
42587;BME280;28216;53.362;-6.288;2023-06-24T10:03:53;101688.41;;;26.96;100.00
42587;BME280;28216;53.362;-6.288;2023-06-24T10:06:19;101693.09;;;27.01;100.00
42587;BME280;28216;53.362;-6.288;2023-06-24T10:08:45;101687.13;;;26.99;100.00
42587;BME280;28216;53.362;-6.288;2023-06-24T10:11:10;101691.28;;;27.06;100.00
42587;BME280;28216;53.362;-6.288;2023-06-24T10:13:36;101693.16;;;27.06;100.00
42587;BME280;28216;53.362;-6.288;2023-06-24T10:16:02;101680.41;;;27.18;100.00
42587;BME280;28216;53.362;-6.288;2023-06-24T10:20:53;101676.81;;;27.29;100.00
42587;BME280;28216;53.362;-6.288;2023-06-24T10:23:19;101677.75;;;27.57;100.00
42587;BME280;28216;53.362;-6.288;2023-06-24T10:25:47;101670.72;;;27.99;100.00
42587;BME280;28216;53.362;-6.288;2023-06-24T10:28:13;101662.78;;;28.14;100.00
42587;BME280;28216;53.362;-6.288;2023-06-24T10:30:38;101670.00;;;28.09;100.00
42587;BME280;28216;53.362;-6.288;2023-06-24T10:33:10;101667.72;;;28.23;100.00
42587;BME280;28216;53.362;-6.288;2023-06-24T10:35:41;101663.25;;;28.60;100.00
42587;BME280;28216;53.362;-6.288;2023-06-24T10:38:10;101658.94;;;28.91;100.00
42587;BME280;28216;53.362;-6.288;2023-06-24T10:40:43;101660.72;;;29.13;99.73
42587;BME280;28216;53.362;-6.288;2023-06-24T10:45:58;101665.34;;;29.17;94.28
42587;BME280;28216;53.362;-6.288;2023-06-24T10:48:24;101649.16;;;29.22;96.41
42587;BME280;28216;53.362;-6.288;2023-06-24T10:50:50;101652.97;;;29.26;98.04
42587;BME280;28216;53.362;-6.288;2023-06-24T10:53:16;101645.97;;;29.35;97.98
42587;BME280;28216;53.362;-6.288;2023-06-24T10:55:44;101645.84;;;29.62;93.68
42587;BME280;28216;53.362;-6.288;2023-06-24T10:58:13;101636.72;;;29.73;93.41
42587;BME280;28216;53.362;-6.288;2023-06-24T11:00:41;101640.78;;;29.81;90.66
42587;BME280;28216;53.362;-6.288;2023-06-24T11:03:15;101640.53;;;29.88;88.94
42587;BME280;28216;53.362;-6.288;2023-06-24T11:05:42;101641.03;;;29.75;91.17
42587;BME280;28216;53.362;-6.288;2023-06-24T11:08:08;101638.94;;;29.97;88.67
42587;BME280;28216;53.362;-6.288;2023-06-24T11:10:50;101646.78;;;29.98;86.63
42587;BME280;28216;53.362;-6.288;2023-06-24T11:13:16;101656.25;;;30.01;85.49
42587;BME280;28216;53.362;-6.288;2023-06-24T11:15:45;101648.09;;;29.81;86.33
42587;BME280;28216;53.362;-6.288;2023-06-24T11:18:11;101647.84;;;29.87;86.63
42587;BME280;28216;53.362;-6.288;2023-06-24T11:20:38;101642.44;;;29.92;83.67
42587;BME280;28216;53.362;-6.288;2023-06-24T11:23:07;101650.53;;;29.87;81.25
42587;BME280;28216;53.362;-6.288;2023-06-24T11:25:39;101643.50;;;29.76;82.65
42587;BME280;28216;53.362;-6.288;2023-06-24T11:28:04;101630.50;;;29.73;87.14
42587;BME280;28216;53.362;-6.288;2023-06-24T11:30:34;101623.94;;;29.59;91.53
42587;BME280;28216;53.362;-6.288;2023-06-24T11:32:59;101627.28;;;29.86;92.38
42587;BME280;28216;53.362;-6.288;2023-06-24T11:35:25;101621.09;;;29.91;90.80
42587;BME280;28216;53.362;-6.288;2023-06-24T11:37:51;101622.41;;;29.78;90.33
42587;BME280;28216;53.362;-6.288;2023-06-24T11:40:18;101624.88;;;29.95;88.19
42587;BME280;28216;53.362;-6.288;2023-06-24T11:42:44;101627.91;;;30.03;86.44
42587;BME280;28216;53.362;-6.288;2023-06-24T11:45:12;101616.25;;;30.08;81.28
42587;BME280;28216;53.362;-6.288;2023-06-24T11:47:39;101608.44;;;30.12;78.66
42587;BME280;28216;53.362;-6.288;2023-06-24T11:50:08;101618.16;;;30.18;77.89
42587;BME280;28216;53.362;-6.288;2023-06-24T11:52:41;101615.47;;;30.23;75.62
42587;BME280;28216;53.362;-6.288;2023-06-24T11:57:55;101617.06;;;30.03;74.10
42587;BME280;28216;53.362;-6.288;2023-06-24T12:00:30;101620.88;;;30.18;74.00
42587;BME280;28216;53.362;-6.288;2023-06-24T12:02:57;101623.03;;;30.16;76.10
42587;BME280;28216;53.362;-6.288;2023-06-24T12:05:25;101628.16;;;30.07;77.66
42587;BME280;28216;53.362;-6.288;2023-06-24T12:07:58;101625.19;;;30.09;77.57
42587;BME280;28216;53.362;-6.288;2023-06-24T12:10:24;101612.22;;;30.11;77.09
42587;BME280;28216;53.362;-6.288;2023-06-24T12:12:50;101615.19;;;30.09;77.89
42587;BME280;28216;53.362;-6.288;2023-06-24T12:15:15;101606.81;;;30.16;76.98
42587;BME280;28216;53.362;-6.288;2023-06-24T12:17:41;101616.25;;;30.08;76.55
42587;BME280;28216;53.362;-6.288;2023-06-24T12:20:07;101611.34;;;30.00;75.43
42587;BME280;28216;53.362;-6.288;2023-06-24T12:22:36;101610.59;;;30.04;77.28
42587;BME280;28216;53.362;-6.288;2023-06-24T12:25:02;101606.53;;;30.17;78.26
42587;BME280;28216;53.362;-6.288;2023-06-24T12:27:30;101608.44;;;30.17;79.57
42587;BME280;28216;53.362;-6.288;2023-06-24T12:29:55;101613.56;;;30.33;78.24
42587;BME280;28216;53.362;-6.288;2023-06-24T12:32:21;101603.56;;;30.29;78.44
42587;BME280;28216;53.362;-6.288;2023-06-24T12:34:46;101614.38;;;30.03;81.61
42587;BME280;28216;53.362;-6.288;2023-06-24T12:37:12;101609.47;;;30.00;83.19
42587;BME280;28216;53.362;-6.288;2023-06-24T12:39:37;101609.47;;;29.95;85.28
42587;BME280;28216;53.362;-6.288;2023-06-24T12:42:03;101611.00;;;29.71;86.94
42587;BME280;28216;53.362;-6.288;2023-06-24T12:44:31;101613.22;;;29.84;88.14
42587;BME280;28216;53.362;-6.288;2023-06-24T12:46:59;101609.44;;;29.85;87.70
42587;BME280;28216;53.362;-6.288;2023-06-24T12:49:24;101609.47;;;29.95;88.17
42587;BME280;28216;53.362;-6.288;2023-06-24T12:51:50;101604.03;;;29.90;89.49
42587;BME280;28216;53.362;-6.288;2023-06-24T12:54:15;101607.03;;;29.94;88.14
42587;BME280;28216;53.362;-6.288;2023-06-24T12:56:43;101594.03;;;29.81;87.74
42587;BME280;28216;53.362;-6.288;2023-06-24T12:59:09;101600.00;;;29.93;88.27
42587;BME280;28216;53.362;-6.288;2023-06-24T13:01:34;101587.81;;;29.80;89.39